createdAt,value
2023-04-06T00:02:47.873Z,34.53
2023-04-06T00:05:36.033Z,38.30
2023-04-06T00:08:25.562Z,34.40
2023-04-06T00:11:13.766Z,36.10
2023-04-06T00:14:01.960Z,35.83
2023-04-06T00:16:50.059Z,36.00
2023-04-06T00:19:38.231Z,36.97
2023-04-06T00:22:26.359Z,34.50
2023-04-06T00:25:18.322Z,35.37
2023-04-06T00:28:06.427Z,36.22
2023-04-06T00:30:56.339Z,35.47
2023-04-06T00:33:44.504Z,35.92
2023-04-06T00:36:32.585Z,29.48
2023-04-06T00:39:21.269Z,35.30
2023-04-06T00:42:14.578Z,34.85
2023-04-06T00:45:05.984Z,32.60
2023-04-06T00:47:54.180Z,33.42
2023-04-06T00:50:42.271Z,33.28
2023-04-06T00:53:30.484Z,29.17
2023-04-06T00:56:18.620Z,30.92
2023-04-06T00:59:08.347Z,28.33
2023-04-06T01:01:56.706Z,29.98
2023-04-06T01:04:45.384Z,27.70
2023-04-06T01:07:33.742Z,27.53
2023-04-06T01:10:29.433Z,27.52
2023-04-06T01:13:17.442Z,24.17
2023-04-06T01:16:07.662Z,25.20
2023-04-06T01:18:55.658Z,23.77
2023-04-06T01:21:44.202Z,24.30
2023-04-06T01:24:33.588Z,21.95
2023-04-06T01:27:21.797Z,22.27
2023-04-06T01:30:10.379Z,22.20
2023-04-06T01:32:58.526Z,21.33
2023-04-06T01:35:46.643Z,18.90
2023-04-06T01:38:35.122Z,20.73
2023-04-06T01:41:24.592Z,19.83
2023-04-06T01:44:12.691Z,20.77
2023-04-06T01:47:01.509Z,19.55
2023-04-06T01:49:49.579Z,18.10
2023-04-06T01:52:37.537Z,16.98
2023-04-06T01:55:25.779Z,20.02
2023-04-06T01:58:15.622Z,20.13
2023-04-06T02:01:03.848Z,20.35
2023-04-06T02:03:52.004Z,21.27
2023-04-06T02:06:40.039Z,21.13
2023-04-06T02:09:28.049Z,19.35
2023-04-06T02:12:16.177Z,17.40
2023-04-06T02:15:06.156Z,19.33
2023-04-06T02:17:54.370Z,20.33
2023-04-06T02:20:42.630Z,19.35
2023-04-06T02:23:31.017Z,19.30
2023-04-06T02:26:19.099Z,19.73
2023-04-06T02:29:08.401Z,19.92
2023-04-06T02:31:58.097Z,18.30
2023-04-06T02:34:46.253Z,20.60
2023-04-06T02:37:34.371Z,21.25
2023-04-06T02:40:22.647Z,20.10
2023-04-06T02:43:10.654Z,22.25
2023-04-06T02:45:58.775Z,23.50
2023-04-06T02:48:48.441Z,21.58
2023-04-06T02:51:36.538Z,20.42
2023-04-06T02:54:24.772Z,22.17
2023-04-06T02:57:12.816Z,22.17
2023-04-06T03:00:00.968Z,21.20
2023-04-06T03:02:49.136Z,20.10
2023-04-06T03:05:38.619Z,20.70
2023-04-06T03:08:26.809Z,23.23
2023-04-06T03:11:14.895Z,20.15
2023-04-06T03:14:03.021Z,23.43
2023-04-06T03:16:51.142Z,23.52
2023-04-06T03:19:39.233Z,25.13
2023-04-06T03:22:31.279Z,21.77
2023-04-06T03:25:19.290Z,23.20
2023-04-06T03:28:07.729Z,21.20
2023-04-06T03:30:55.985Z,20.88
2023-04-06T03:33:44.023Z,23.30
2023-04-06T03:36:32.280Z,23.65
2023-04-06T03:39:21.650Z,22.70
2023-04-06T03:42:09.745Z,21.90
2023-04-06T03:44:57.803Z,25.80
2023-04-06T03:47:46.035Z,22.77
2023-04-06T03:50:34.080Z,22.77
2023-04-06T03:53:22.190Z,24.83
2023-04-06T03:56:11.555Z,22.50
2023-04-06T03:59:03.053Z,23.90
2023-04-06T04:01:52.021Z,23.08
2023-04-06T04:04:40.369Z,23.27
2023-04-06T04:07:28.540Z,25.52
2023-04-06T04:10:16.709Z,23.20
2023-04-06T04:13:06.575Z,22.55
2023-04-06T04:15:57.573Z,26.38
2023-04-06T04:18:46.443Z,23.65
2023-04-06T04:21:34.572Z,23.55
2023-04-06T04:24:22.680Z,22.53
2023-04-06T04:27:10.932Z,23.88
2023-04-06T04:30:00.270Z,23.00
2023-04-06T04:32:48.350Z,23.88
2023-04-06T04:35:36.489Z,26.58
2023-04-06T04:38:24.756Z,24.53
2023-04-06T04:41:12.949Z,24.48
2023-04-06T04:44:01.086Z,27.88
2023-04-06T04:46:50.647Z,23.85
2023-04-06T04:49:38.781Z,25.30
2023-04-06T04:52:26.756Z,26.57
2023-04-06T04:55:15.049Z,26.27
2023-04-06T04:58:03.399Z,25.83
2023-04-06T05:00:51.329Z,28.02
2023-04-06T05:03:41.243Z,26.98
2023-04-06T05:06:29.517Z,24.63
2023-04-06T05:09:18.460Z,28.05
2023-04-06T05:12:06.697Z,27.38
2023-04-06T05:14:55.357Z,26.35
2023-04-06T05:17:43.431Z,30.35
2023-04-06T05:20:33.041Z,31.03
2023-04-06T05:23:22.244Z,28.65
2023-04-06T05:26:10.456Z,29.65
2023-04-06T05:28:58.556Z,30.48
2023-04-06T05:31:47.121Z,32.25
2023-04-06T05:34:35.248Z,30.63
2023-04-06T05:37:24.541Z,30.23
2023-04-06T05:40:12.959Z,30.65
2023-04-06T05:43:01.612Z,30.52
2023-04-06T05:45:49.518Z,31.35
2023-04-06T05:48:37.827Z,33.20
2023-04-06T05:51:26.031Z,33.08
2023-04-06T05:54:15.778Z,37.25
2023-04-06T05:57:06.531Z,38.42
2023-04-06T05:59:54.584Z,35.92
2023-04-06T06:02:45.731Z,36.53
2023-04-06T06:05:33.735Z,39.60
2023-04-06T06:08:21.712Z,36.90
2023-04-06T06:11:11.549Z,36.45
2023-04-06T06:13:59.643Z,35.67
2023-04-06T06:17:05.536Z,37.40
2023-04-06T06:19:56.007Z,39.08
2023-04-06T06:22:44.255Z,38.55
2023-04-06T06:25:32.751Z,36.67
2023-04-06T06:28:22.351Z,38.17
2023-04-06T06:31:12.743Z,39.63
2023-04-06T06:34:02.989Z,35.25
2023-04-06T06:36:52.860Z,33.10
2023-04-06T06:39:41.228Z,40.78
2023-04-06T06:42:29.245Z,39.28
2023-04-06T06:45:18.850Z,38.77
2023-04-06T06:48:07.163Z,37.03
2023-04-06T06:50:55.536Z,43.70
2023-04-06T06:53:43.569Z,43.55
2023-04-06T06:56:31.564Z,42.15
2023-04-06T06:59:19.826Z,40.27
2023-04-06T07:02:10.331Z,40.47
2023-04-06T07:04:58.587Z,42.92
2023-04-06T07:07:46.691Z,42.85
2023-04-06T07:10:36.171Z,40.85
2023-04-06T07:13:32.287Z,40.97
2023-04-06T07:16:20.334Z,38.25
2023-04-06T07:19:10.522Z,36.53
2023-04-06T07:21:58.699Z,38.95
2023-04-06T07:24:46.820Z,32.90
2023-04-06T07:27:34.978Z,33.77
2023-04-06T07:30:23.964Z,36.15
2023-04-06T07:33:12.311Z,31.13
2023-04-06T07:36:01.749Z,27.52
2023-04-06T07:38:49.961Z,29.33
2023-04-06T07:41:39.139Z,26.20
2023-04-06T07:44:27.794Z,28.85
2023-04-06T07:47:16.011Z,30.60
2023-04-06T07:50:04.268Z,29.05
2023-04-06T07:53:48.801Z,26.70
2023-04-06T07:56:38.214Z,25.20
2023-04-06T07:59:26.467Z,26.30
2023-04-06T08:02:14.762Z,26.92
2023-04-06T08:05:03.131Z,23.15
2023-04-06T08:07:51.197Z,24.45
2023-04-06T08:10:39.422Z,22.43
2023-04-06T08:13:30.188Z,21.92
2023-04-06T08:16:18.289Z,25.58
2023-04-06T08:19:08.374Z,25.48
2023-04-06T08:21:56.348Z,29.50
2023-04-06T08:24:44.330Z,27.60
2023-04-06T08:27:35.624Z,24.75
2023-04-06T08:30:27.954Z,26.33
2023-04-06T08:33:20.037Z,23.13
2023-04-06T08:36:12.800Z,26.95
2023-04-06T08:39:01.917Z,24.93
2023-04-06T08:41:50.111Z,20.13
2023-04-06T08:44:38.839Z,20.45
2023-04-06T08:47:29.470Z,20.15
2023-04-06T08:50:19.006Z,18.38
2023-04-06T08:53:08.349Z,17.17
2023-04-06T08:55:57.618Z,14.48
2023-04-06T08:58:46.307Z,16.60
2023-04-06T09:01:41.177Z,13.75
2023-04-06T09:04:39.868Z,16.27
2023-04-06T09:07:30.318Z,13.33
2023-04-06T09:10:19.351Z,11.57
2023-04-06T09:13:09.582Z,12.18
2023-04-06T09:16:02.073Z,13.70
2023-04-06T09:18:51.360Z,13.82
2023-04-06T09:21:41.821Z,12.37
2023-04-06T09:24:29.956Z,13.10
2023-04-06T09:27:18.710Z,17.05
2023-04-06T09:30:14.590Z,14.73
2023-04-06T09:33:02.646Z,16.73
2023-04-06T09:35:52.156Z,14.70
2023-04-06T09:38:55.415Z,14.18
2023-04-06T09:41:44.406Z,14.85
2023-04-06T09:44:33.630Z,13.80
2023-04-06T09:47:24.789Z,14.25
2023-04-06T09:50:16.937Z,12.40
2023-04-06T09:53:05.601Z,13.52
2023-04-06T09:55:59.809Z,12.75
2023-04-06T09:58:51.891Z,14.82
2023-04-06T10:01:41.338Z,12.40
2023-04-06T10:04:38.891Z,16.03
2023-04-06T10:07:28.570Z,15.60
2023-04-06T10:10:17.625Z,16.38
2023-04-06T10:13:07.893Z,17.92
2023-04-06T10:16:01.716Z,17.52
2023-04-06T10:18:57.410Z,18.13
2023-04-06T10:21:47.301Z,15.45
2023-04-06T10:24:35.370Z,17.10
2023-04-06T10:27:30.360Z,15.93
2023-04-06T10:30:19.716Z,16.98
2023-04-06T10:33:15.415Z,19.00
2023-04-06T10:36:11.817Z,15.50
2023-04-06T10:39:01.635Z,15.50
2023-04-06T10:41:49.782Z,17.77
2023-04-06T10:44:47.488Z,16.92
2023-04-06T10:47:42.446Z,16.73
2023-04-06T10:50:31.872Z,17.00
2023-04-06T10:53:23.852Z,17.30
2023-04-06T10:56:13.580Z,17.50
2023-04-06T10:59:03.700Z,16.90
2023-04-06T11:01:51.885Z,16.73
2023-04-06T11:04:43.326Z,15.45
2023-04-06T11:07:31.681Z,17.20
2023-04-06T11:10:23.339Z,16.67
2023-04-06T11:13:11.662Z,18.33
2023-04-06T11:15:59.664Z,15.27
2023-04-06T11:18:52.861Z,14.43
2023-04-06T11:21:44.521Z,16.08
2023-04-06T11:24:32.624Z,16.42
2023-04-06T11:27:21.644Z,15.65
2023-04-06T11:30:11.334Z,15.57
2023-04-06T11:33:03.358Z,17.35
2023-04-06T11:35:51.625Z,19.63
2023-04-06T11:38:42.488Z,16.20
2023-04-06T11:41:31.280Z,18.95
2023-04-06T11:44:31.490Z,19.00
2023-04-06T11:47:19.417Z,19.38
2023-04-06T11:50:09.492Z,21.30
2023-04-06T11:53:02.008Z,18.63
2023-04-06T11:55:51.830Z,20.30
2023-04-06T11:58:39.879Z,19.73
2023-04-06T12:01:28.583Z,22.73
2023-04-06T12:04:16.810Z,22.23
2023-04-06T12:07:05.765Z,23.55
2023-04-06T12:09:53.791Z,22.25
2023-04-06T12:12:43.241Z,20.60
2023-04-06T12:15:31.747Z,23.40
2023-04-06T12:18:19.724Z,21.55
2023-04-06T12:21:07.764Z,21.10
2023-04-06T12:23:55.808Z,20.35
2023-04-06T12:26:44.860Z,20.33
2023-04-06T12:29:34.221Z,19.20
2023-04-06T12:32:22.333Z,19.77
2023-04-06T12:35:12.606Z,20.15
2023-04-06T12:38:00.671Z,16.55
2023-04-06T12:40:48.887Z,16.70
2023-04-06T12:43:37.008Z,16.88
2023-04-06T12:46:27.145Z,16.23
2023-04-06T12:49:17.630Z,16.90
2023-04-06T12:52:06.012Z,16.90
2023-04-06T12:54:54.042Z,16.00
2023-04-06T12:57:42.632Z,15.88
2023-04-06T13:00:31.647Z,17.70
2023-04-06T13:03:25.006Z,16.40
2023-04-06T13:06:14.054Z,16.35
2023-04-06T13:09:02.154Z,16.40
2023-04-06T13:11:52.479Z,14.57
2023-04-06T13:14:41.314Z,15.93
2023-04-06T13:17:29.872Z,14.63
2023-04-06T13:20:22.275Z,14.82
2023-04-06T13:23:10.341Z,16.50
2023-04-06T13:26:02.707Z,14.18
2023-04-06T13:28:50.813Z,15.73
2023-04-06T13:31:39.872Z,15.68
2023-04-06T13:34:28.392Z,16.00
2023-04-06T13:37:17.869Z,14.50
2023-04-06T13:40:07.341Z,14.48
2023-04-06T13:42:55.363Z,16.08
2023-04-06T13:45:43.462Z,13.63
2023-04-06T13:48:31.555Z,15.95
2023-04-06T13:51:19.608Z,14.23
2023-04-06T13:54:09.125Z,13.40
2023-04-06T13:56:57.659Z,14.13
2023-04-06T13:59:45.920Z,15.35
2023-04-06T14:02:34.048Z,15.70
2023-04-06T14:05:22.134Z,15.70
2023-04-06T14:08:10.776Z,16.98
2023-04-06T14:11:00.233Z,14.23
2023-04-06T14:13:48.207Z,16.13
2023-04-06T14:16:36.438Z,15.68
2023-04-06T14:19:25.570Z,14.37
2023-04-06T14:22:14.460Z,14.80
2023-04-06T14:25:03.132Z,15.38
2023-04-06T14:27:52.974Z,15.18
2023-04-06T14:30:42.361Z,13.27
2023-04-06T14:33:31.834Z,15.90
2023-04-06T14:36:20.207Z,17.42
2023-04-06T14:39:09.266Z,16.08
2023-04-06T14:41:57.784Z,17.13
2023-04-06T14:44:47.633Z,17.88
2023-04-06T14:47:35.906Z,18.53
2023-04-06T14:50:23.922Z,19.48
2023-04-06T14:53:12.529Z,17.02
2023-04-06T14:56:00.606Z,17.90
2023-04-06T14:58:54.083Z,18.42
2023-04-06T15:01:43.634Z,18.30
2023-04-06T15:04:31.943Z,19.25
2023-04-06T15:07:22.989Z,16.65
2023-04-06T15:10:12.524Z,17.08
2023-04-06T15:13:00.616Z,18.85
2023-04-06T15:15:48.870Z,19.80
2023-04-06T15:18:38.357Z,18.42
2023-04-06T15:21:27.925Z,18.27
2023-04-06T15:24:16.264Z,18.63
2023-04-06T15:27:05.305Z,17.33
2023-04-06T15:29:53.523Z,19.00
2023-04-06T15:32:41.573Z,18.00
2023-04-06T15:35:32.485Z,18.77
2023-04-06T15:38:21.962Z,17.77
2023-04-06T15:41:11.492Z,18.60
2023-04-06T15:43:59.892Z,16.50
2023-04-06T15:46:48.923Z,18.33
2023-04-06T15:49:37.411Z,20.08
2023-04-06T15:52:26.851Z,18.80
2023-04-06T15:55:14.953Z,20.05
2023-04-06T15:58:03.047Z,22.97
2023-04-06T16:00:51.348Z,24.92
2023-04-06T16:03:39.506Z,22.52
2023-04-06T16:06:28.289Z,22.05
2023-04-06T16:09:17.602Z,21.05
2023-04-06T16:12:06.814Z,19.77
2023-04-06T16:14:54.969Z,21.90
2023-04-06T16:17:43.528Z,23.73
2023-04-06T16:20:32.223Z,24.00
2023-04-06T16:23:20.578Z,24.27
2023-04-06T16:26:14.225Z,27.20
2023-04-06T16:29:02.718Z,29.85
2023-04-06T16:31:50.916Z,29.17
2023-04-06T16:34:39.010Z,31.88
2023-04-06T16:37:29.998Z,31.27
2023-04-06T16:40:18.300Z,33.50
2023-04-06T16:43:07.837Z,34.55
2023-04-06T16:45:56.073Z,38.03
2023-04-06T16:48:44.167Z,34.13
2023-04-06T16:51:33.235Z,31.95
2023-04-06T16:54:21.229Z,33.73
2023-04-06T16:57:09.791Z,32.50
2023-04-06T16:59:59.517Z,32.55
2023-04-06T17:02:48.180Z,33.78
2023-04-06T17:05:38.951Z,35.20
2023-04-06T17:08:27.086Z,32.40
2023-04-06T17:11:19.048Z,32.33
2023-04-06T17:14:09.805Z,32.70
2023-04-06T17:16:59.435Z,33.28
2023-04-06T17:19:47.525Z,36.17
2023-04-06T17:22:35.962Z,33.20
2023-04-06T17:25:24.092Z,31.60
2023-04-06T17:28:12.109Z,32.13
2023-04-06T17:31:01.362Z,32.28
2023-04-06T17:33:50.859Z,29.90
2023-04-06T17:36:38.964Z,26.50
2023-04-06T17:39:27.412Z,22.58
2023-04-06T17:42:16.384Z,21.17
2023-04-06T17:45:04.942Z,22.80
2023-04-06T17:47:52.992Z,19.08
2023-04-06T17:50:42.587Z,14.43
2023-04-06T17:53:32.406Z,15.02
2023-04-06T17:56:21.943Z,13.57
2023-04-06T17:59:11.516Z,13.48
2023-04-06T18:01:59.656Z,12.05
2023-04-06T18:04:48.197Z,10.67
2023-04-06T18:07:37.810Z,11.38
2023-04-06T18:10:26.182Z,11.20
2023-04-06T18:13:14.348Z,11.10
2023-04-06T18:16:02.803Z,13.10
2023-04-06T18:18:51.145Z,15.00
2023-04-06T18:21:39.367Z,10.80
2023-04-06T18:24:41.467Z,12.73
2023-04-06T18:27:31.484Z,10.30
2023-04-06T18:30:22.230Z,9.88
2023-04-06T18:33:10.549Z,10.67
2023-04-06T18:35:58.568Z,10.60
2023-04-06T18:38:48.846Z,11.13
2023-04-06T18:41:39.263Z,9.77
2023-04-06T18:44:27.450Z,11.05
2023-04-06T18:47:16.053Z,8.53
2023-04-06T18:50:04.136Z,11.35
2023-04-06T18:52:52.672Z,8.13
2023-04-06T18:55:40.831Z,10.93
2023-04-06T18:58:30.598Z,10.10
2023-04-06T19:01:22.704Z,6.00
2023-04-06T19:04:11.643Z,7.68
2023-04-06T19:07:01.144Z,8.55
2023-04-06T19:09:49.172Z,11.88
2023-04-06T19:12:39.596Z,7.55
2023-04-06T19:15:29.768Z,7.07
2023-04-06T19:18:19.849Z,10.77
2023-04-06T19:21:16.750Z,5.78
2023-04-06T19:24:05.165Z,7.97
2023-04-06T19:26:53.277Z,4.60
2023-04-06T19:29:41.385Z,6.77
2023-04-06T19:32:31.010Z,9.35
2023-04-06T19:35:20.219Z,6.18
2023-04-06T19:38:08.205Z,8.52
2023-04-06T19:40:56.365Z,7.28
2023-04-06T19:43:44.679Z,6.57
2023-04-06T19:46:33.188Z,6.28
2023-04-06T19:49:28.272Z,5.45
2023-04-06T19:52:17.375Z,7.38
2023-04-06T19:55:06.332Z,5.78
2023-04-06T19:57:54.519Z,6.37
2023-04-06T20:00:43.169Z,8.18
2023-04-06T20:03:31.451Z,7.55
2023-04-06T20:06:21.011Z,6.78
2023-04-06T20:09:15.070Z,7.18
2023-04-06T20:12:03.317Z,7.40
2023-04-06T20:14:51.977Z,8.35
2023-04-06T20:17:40.169Z,8.05
2023-04-06T20:20:28.689Z,9.85
2023-04-06T20:23:18.319Z,9.30
2023-04-06T20:26:10.239Z,8.10
2023-04-06T20:28:58.408Z,9.95
2023-04-06T20:31:47.103Z,8.10
2023-04-06T20:34:36.509Z,6.82
2023-04-06T20:37:24.834Z,6.90
2023-04-06T20:40:14.711Z,5.37
2023-04-06T20:43:05.709Z,5.93
2023-04-06T20:45:53.874Z,5.97
2023-04-06T20:48:41.971Z,7.05
2023-04-06T20:51:30.033Z,7.65
2023-04-06T20:54:18.833Z,8.07
2023-04-06T20:57:09.067Z,7.00
2023-04-06T20:59:57.525Z,6.63
2023-04-06T21:02:46.205Z,7.38
2023-04-06T21:05:34.478Z,6.95
2023-04-06T21:08:22.684Z,8.10
2023-04-06T21:11:11.501Z,8.50
2023-04-06T21:14:01.316Z,9.35
2023-04-06T21:16:49.453Z,10.05
2023-04-06T21:19:39.196Z,10.75
2023-04-06T21:22:27.224Z,7.93
2023-04-06T21:25:15.330Z,10.77
2023-04-06T21:28:03.534Z,8.40
2023-04-06T21:30:54.171Z,13.77
2023-04-06T21:33:42.731Z,12.15
2023-04-06T21:36:32.718Z,13.33
2023-04-06T21:39:20.794Z,10.38
2023-04-06T21:42:08.851Z,8.38
2023-04-06T21:45:09.530Z,9.20
2023-04-06T21:47:59.125Z,9.40
2023-04-06T21:50:47.433Z,10.70
2023-04-06T21:53:37.617Z,11.95
2023-04-06T21:56:27.159Z,10.13
2023-04-06T21:59:18.263Z,11.43
2023-04-06T22:02:06.337Z,9.40
2023-04-06T22:04:56.267Z,7.70
2023-04-06T22:07:45.950Z,9.88
2023-04-06T22:10:33.981Z,8.98
2023-04-06T22:13:22.193Z,13.00
2023-04-06T22:16:10.330Z,11.52
2023-04-06T22:18:58.457Z,11.73
2023-04-06T22:21:47.999Z,12.23
2023-04-06T22:24:36.272Z,12.73
2023-04-06T22:27:24.430Z,12.88
2023-04-06T22:30:13.282Z,12.00
2023-04-06T22:33:01.649Z,9.47
2023-04-06T22:35:49.942Z,8.60
2023-04-06T22:38:39.639Z,10.23
2023-04-06T22:41:28.115Z,12.80
2023-04-06T22:44:16.621Z,14.80
2023-04-06T22:47:05.246Z,12.07
2023-04-06T22:49:53.569Z,13.70
2023-04-06T22:52:42.009Z,12.07
2023-04-06T22:55:32.034Z,10.00
2023-04-06T22:58:20.595Z,13.55
2023-04-06T23:01:08.980Z,12.13
2023-04-06T23:03:57.707Z,11.13
2023-04-06T23:06:46.301Z,12.63
2023-04-06T23:09:34.418Z,12.10
2023-04-06T23:12:23.938Z,9.77
2023-04-06T23:15:12.945Z,11.73
2023-04-06T23:18:01.251Z,11.52
2023-04-06T23:20:49.464Z,12.40
2023-04-06T23:23:37.780Z,11.63
2023-04-06T23:26:28.183Z,11.02
2023-04-06T23:29:17.630Z,10.07
2023-04-06T23:32:06.404Z,13.70
2023-04-06T23:34:54.811Z,10.15
2023-04-06T23:37:42.981Z,8.60
2023-04-06T23:40:31.001Z,9.65
2023-04-06T23:43:19.211Z,9.23
2023-04-06T23:46:08.796Z,9.93
2023-04-06T23:48:57.116Z,10.10
2023-04-06T23:51:45.322Z,8.32
2023-04-06T23:54:33.293Z,11.40
2023-04-06T23:57:21.332Z,11.67
